sensor_id;sensor_type;location;lat;lon;timestamp;pressure;altitude;pressure_sealevel;temperature;humidity
38612;BME280;24368;52.156;20.788;2023-05-20T00:01:42;101541.99;;;12.91;100.00
38612;BME280;24368;52.156;20.788;2023-05-20T00:06:43;101538.99;;;12.93;100.00
38612;BME280;24368;52.156;20.788;2023-05-20T00:11:45;101533.77;;;12.94;100.00
38612;BME280;24368;52.156;20.788;2023-05-20T00:22:09;101531.70;;;12.90;100.00
38612;BME280;24368;52.156;20.788;2023-05-20T00:27:10;101531.27;;;12.87;100.00
38612;BME280;24368;52.156;20.788;2023-05-20T00:32:11;101530.98;;;12.88;100.00
38612;BME280;24368;52.156;20.788;2023-05-20T00:37:12;101529.02;;;12.88;100.00
38612;BME280;24368;52.156;20.788;2023-05-20T00:42:27;101526.31;;;12.85;100.00
38612;BME280;24368;52.156;20.788;2023-05-20T00:47:33;101525.50;;;12.80;100.00
38612;BME280;24368;52.156;20.788;2023-05-20T00:52:36;101522.41;;;12.77;100.00
38612;BME280;24368;52.156;20.788;2023-05-20T00:57:37;101517.07;;;12.76;100.00
38612;BME280;24368;52.156;20.788;2023-05-20T01:02:39;101521.19;;;12.79;100.00
38612;BME280;24368;52.156;20.788;2023-05-20T01:07:40;101527.25;;;12.82;100.00
38612;BME280;24368;52.156;20.788;2023-05-20T01:12:48;101530.72;;;12.75;100.00
38612;BME280;24368;52.156;20.788;2023-05-20T01:18:01;101532.51;;;12.71;100.00
38612;BME280;24368;52.156;20.788;2023-05-20T01:23:05;101527.91;;;12.71;100.00
38612;BME280;24368;52.156;20.788;2023-05-20T01:28:07;101528.27;;;12.71;100.00
38612;BME280;24368;52.156;20.788;2023-05-20T01:33:13;101530.22;;;12.71;100.00
38612;BME280;24368;52.156;20.788;2023-05-20T01:38:18;101526.27;;;12.66;100.00
38612;BME280;24368;52.156;20.788;2023-05-20T01:43:20;101525.05;;;12.60;100.00
38612;BME280;24368;52.156;20.788;2023-05-20T01:48:21;101527.59;;;12.61;100.00
38612;BME280;24368;52.156;20.788;2023-05-20T01:53:22;101524.06;;;12.61;100.00
38612;BME280;24368;52.156;20.788;2023-05-20T01:58:23;101516.05;;;12.62;100.00
38612;BME280;24368;52.156;20.788;2023-05-20T02:03:24;101507.63;;;12.57;100.00
38612;BME280;24368;52.156;20.788;2023-05-20T02:08:25;101507.77;;;12.56;100.00
38612;BME280;24368;52.156;20.788;2023-05-20T02:13:26;101505.27;;;12.54;100.00
38612;BME280;24368;52.156;20.788;2023-05-20T02:18:27;101505.89;;;12.55;100.00
38612;BME280;24368;52.156;20.788;2023-05-20T02:23:31;101506.75;;;12.55;100.00
38612;BME280;24368;52.156;20.788;2023-05-20T02:28:32;101511.51;;;12.51;100.00
38612;BME280;24368;52.156;20.788;2023-05-20T02:33:34;101517.97;;;12.48;100.00
38612;BME280;24368;52.156;20.788;2023-05-20T02:38:35;101521.21;;;12.51;100.00
38612;BME280;24368;52.156;20.788;2023-05-20T02:43:36;101521.97;;;12.55;100.00
38612;BME280;24368;52.156;20.788;2023-05-20T02:48:37;101523.89;;;12.55;100.00
38612;BME280;24368;52.156;20.788;2023-05-20T02:53:38;101523.50;;;12.51;100.00
38612;BME280;24368;52.156;20.788;2023-05-20T02:58:39;101520.54;;;12.51;100.00
38612;BME280;24368;52.156;20.788;2023-05-20T03:03:41;101517.78;;;12.55;100.00
38612;BME280;24368;52.156;20.788;2023-05-20T03:08:43;101516.45;;;12.56;100.00
38612;BME280;24368;52.156;20.788;2023-05-20T03:13:44;101518.01;;;12.58;100.00
38612;BME280;24368;52.156;20.788;2023-05-20T03:18:45;101520.15;;;12.54;100.00
38612;BME280;24368;52.156;20.788;2023-05-20T03:23:46;101524.69;;;12.53;100.00
38612;BME280;24368;52.156;20.788;2023-05-20T03:28:48;101528.02;;;12.55;100.00
38612;BME280;24368;52.156;20.788;2023-05-20T03:33:49;101525.02;;;12.60;100.00
38612;BME280;24368;52.156;20.788;2023-05-20T03:38:50;101524.63;;;12.61;100.00
38612;BME280;24368;52.156;20.788;2023-05-20T03:43:51;101520.23;;;12.57;100.00
38612;BME280;24368;52.156;20.788;2023-05-20T03:48:52;101522.40;;;12.58;100.00
38612;BME280;24368;52.156;20.788;2023-05-20T03:53:53;101525.51;;;12.63;100.00
38612;BME280;24368;52.156;20.788;2023-05-20T03:58:54;101524.85;;;12.66;100.00
38612;BME280;24368;52.156;20.788;2023-05-20T04:03:56;101525.31;;;12.69;100.00
38612;BME280;24368;52.156;20.788;2023-05-20T04:08:57;101528.49;;;12.69;100.00
38612;BME280;24368;52.156;20.788;2023-05-20T04:13:58;101529.52;;;12.71;100.00
38612;BME280;24368;52.156;20.788;2023-05-20T04:19:00;101528.95;;;12.75;100.00
38612;BME280;24368;52.156;20.788;2023-05-20T04:24:02;101529.36;;;12.85;100.00
38612;BME280;24368;52.156;20.788;2023-05-20T04:29:03;101541.06;;;12.92;100.00
38612;BME280;24368;52.156;20.788;2023-05-20T04:34:04;101536.20;;;12.93;100.00
38612;BME280;24368;52.156;20.788;2023-05-20T04:39:06;101534.33;;;12.94;100.00
38612;BME280;24368;52.156;20.788;2023-05-20T04:44:10;101534.92;;;12.95;100.00
38612;BME280;24368;52.156;20.788;2023-05-20T04:49:12;101527.54;;;12.95;100.00
38612;BME280;24368;52.156;20.788;2023-05-20T04:54:13;101528.14;;;13.08;100.00
38612;BME280;24368;52.156;20.788;2023-05-20T04:59:14;101527.94;;;13.15;100.00
38612;BME280;24368;52.156;20.788;2023-05-20T05:04:15;101529.48;;;13.18;100.00
38612;BME280;24368;52.156;20.788;2023-05-20T05:09:16;101531.12;;;13.21;100.00
38612;BME280;24368;52.156;20.788;2023-05-20T05:14:18;101532.11;;;13.22;100.00
38612;BME280;24368;52.156;20.788;2023-05-20T05:19:19;101534.66;;;13.27;100.00
38612;BME280;24368;52.156;20.788;2023-05-20T05:24:20;101536.49;;;13.32;100.00
38612;BME280;24368;52.156;20.788;2023-05-20T05:29:21;101533.86;;;13.36;100.00
38612;BME280;24368;52.156;20.788;2023-05-20T05:34:22;101533.67;;;13.37;100.00
38612;BME280;24368;52.156;20.788;2023-05-20T05:39:23;101535.11;;;13.41;100.00
38612;BME280;24368;52.156;20.788;2023-05-20T05:44:24;101531.70;;;13.49;100.00
38612;BME280;24368;52.156;20.788;2023-05-20T05:49:25;101539.64;;;13.57;100.00
38612;BME280;24368;52.156;20.788;2023-05-20T05:54:26;101539.76;;;13.67;100.00
38612;BME280;24368;52.156;20.788;2023-05-20T05:59:27;101541.76;;;13.72;100.00
38612;BME280;24368;52.156;20.788;2023-05-20T06:04:28;101539.70;;;13.75;100.00
38612;BME280;24368;52.156;20.788;2023-05-20T06:09:29;101542.80;;;13.78;100.00
38612;BME280;24368;52.156;20.788;2023-05-20T06:14:31;101540.66;;;13.87;100.00
38612;BME280;24368;52.156;20.788;2023-05-20T06:19:32;101537.09;;;14.03;100.00
38612;BME280;24368;52.156;20.788;2023-05-20T06:24:33;101544.02;;;14.17;100.00
38612;BME280;24368;52.156;20.788;2023-05-20T06:29:35;101542.39;;;14.17;100.00
38612;BME280;24368;52.156;20.788;2023-05-20T06:34:36;101539.77;;;14.19;100.00
38612;BME280;24368;52.156;20.788;2023-05-20T06:39:37;101535.61;;;14.27;100.00
38612;BME280;24368;52.156;20.788;2023-05-20T06:44:38;101537.10;;;14.46;100.00
38612;BME280;24368;52.156;20.788;2023-05-20T06:49:39;101532.38;;;14.68;100.00
38612;BME280;24368;52.156;20.788;2023-05-20T06:54:40;101529.29;;;14.79;100.00
38612;BME280;24368;52.156;20.788;2023-05-20T06:59:41;101525.33;;;14.81;100.00
38612;BME280;24368;52.156;20.788;2023-05-20T07:04:42;101528.98;;;14.87;100.00
38612;BME280;24368;52.156;20.788;2023-05-20T07:09:44;101524.95;;;15.00;100.00
38612;BME280;24368;52.156;20.788;2023-05-20T07:14:45;101524.30;;;15.13;100.00
38612;BME280;24368;52.156;20.788;2023-05-20T07:19:46;101523.66;;;15.19;100.00
38612;BME280;24368;52.156;20.788;2023-05-20T07:24:47;101518.04;;;15.29;100.00
38612;BME280;24368;52.156;20.788;2023-05-20T07:29:48;101523.30;;;15.35;100.00
38612;BME280;24368;52.156;20.788;2023-05-20T07:34:49;101520.61;;;15.56;100.00
38612;BME280;24368;52.156;20.788;2023-05-20T07:39:52;101518.30;;;15.78;100.00
38612;BME280;24368;52.156;20.788;2023-05-20T07:44:53;101513.08;;;15.84;100.00
38612;BME280;24368;52.156;20.788;2023-05-20T07:49:54;101508.77;;;15.98;100.00
38612;BME280;24368;52.156;20.788;2023-05-20T07:54:55;101502.45;;;16.01;100.00
38612;BME280;24368;52.156;20.788;2023-05-20T07:59:56;101499.40;;;16.18;100.00
38612;BME280;24368;52.156;20.788;2023-05-20T08:04:57;101498.29;;;16.45;100.00
38612;BME280;24368;52.156;20.788;2023-05-20T08:09:58;101501.75;;;16.66;100.00
38612;BME280;24368;52.156;20.788;2023-05-20T08:15:00;101500.37;;;16.72;100.00
38612;BME280;24368;52.156;20.788;2023-05-20T08:20:02;101497.77;;;16.87;100.00
38612;BME280;24368;52.156;20.788;2023-05-20T08:25:07;101493.02;;;16.87;100.00
38612;BME280;24368;52.156;20.788;2023-05-20T08:30:09;101492.81;;;16.96;100.00
38612;BME280;24368;52.156;20.788;2023-05-20T08:35:10;101494.80;;;17.12;100.00
38612;BME280;24368;52.156;20.788;2023-05-20T08:40:12;101487.59;;;17.30;100.00
38612;BME280;24368;52.156;20.788;2023-05-20T08:45:18;101489.23;;;17.33;100.00
38612;BME280;24368;52.156;20.788;2023-05-20T08:50:21;101480.24;;;17.47;100.00
38612;BME280;24368;52.156;20.788;2023-05-20T09:00:26;101479.11;;;17.87;100.00
38612;BME280;24368;52.156;20.788;2023-05-20T09:05:28;101477.10;;;18.08;100.00
38612;BME280;24368;52.156;20.788;2023-05-20T09:10:29;101474.48;;;18.16;100.00
38612;BME280;24368;52.156;20.788;2023-05-20T09:15:32;101474.38;;;18.46;99.73
38612;BME280;24368;52.156;20.788;2023-05-20T09:20:35;101471.30;;;18.56;99.64
38612;BME280;24368;52.156;20.788;2023-05-20T09:25:40;101467.62;;;18.68;99.90
38612;BME280;24368;52.156;20.788;2023-05-20T09:30:42;101463.80;;;18.80;100.00
38612;BME280;24368;52.156;20.788;2023-05-20T09:35:43;101467.51;;;18.93;100.00
38612;BME280;24368;52.156;20.788;2023-05-20T09:40:44;101458.27;;;19.26;97.16
38612;BME280;24368;52.156;20.788;2023-05-20T09:45:48;101453.79;;;19.44;95.62
38612;BME280;24368;52.156;20.788;2023-05-20T09:50:49;101450.19;;;19.72;93.67
38612;BME280;24368;52.156;20.788;2023-05-20T09:55:51;101447.72;;;19.72;94.30
38612;BME280;24368;52.156;20.788;2023-05-20T10:00:52;101443.83;;;19.52;97.98
38612;BME280;24368;52.156;20.788;2023-05-20T10:22:26;101424.17;;;19.96;96.91
38612;BME280;24368;52.156;20.788;2023-05-20T10:27:28;101429.67;;;19.96;95.49
38612;BME280;24368;52.156;20.788;2023-05-20T10:32:31;101418.23;;;20.12;94.81
38612;BME280;24368;52.156;20.788;2023-05-20T10:37:40;101408.04;;;20.42;96.18
38612;BME280;24368;52.156;20.788;2023-05-20T10:42:42;101406.96;;;20.41;92.61
38612;BME280;24368;52.156;20.788;2023-05-20T10:47:53;101397.02;;;20.74;92.83
38612;BME280;24368;52.156;20.788;2023-05-20T10:53:02;101396.98;;;21.07;89.92
38612;BME280;24368;52.156;20.788;2023-05-20T10:58:05;101386.66;;;21.18;92.32
38612;BME280;24368;52.156;20.788;2023-05-20T11:03:06;101391.25;;;21.43;86.56
38612;BME280;24368;52.156;20.788;2023-05-20T11:08:08;101382.32;;;21.55;81.92
38612;BME280;24368;52.156;20.788;2023-05-20T11:13:11;101376.75;;;21.75;79.39
38612;BME280;24368;52.156;20.788;2023-05-20T11:18:12;101364.63;;;21.94;80.69
38612;BME280;24368;52.156;20.788;2023-05-20T11:23:15;101356.45;;;21.67;81.94
38612;BME280;24368;52.156;20.788;2023-05-20T11:28:18;101356.56;;;21.40;84.65
38612;BME280;24368;52.156;20.788;2023-05-20T11:33:19;101357.64;;;21.41;81.62
38612;BME280;24368;52.156;20.788;2023-05-20T11:38:21;101352.47;;;21.66;78.97
38612;BME280;24368;52.156;20.788;2023-05-20T11:43:22;101360.79;;;21.66;79.65
38612;BME280;24368;52.156;20.788;2023-05-20T11:48:24;101358.54;;;21.91;75.79
38612;BME280;24368;52.156;20.788;2023-05-20T11:53:25;101362.74;;;21.81;77.19
38612;BME280;24368;52.156;20.788;2023-05-20T11:58:29;101353.45;;;21.49;80.42
38612;BME280;24368;52.156;20.788;2023-05-20T12:03:30;101346.77;;;21.52;82.30
38612;BME280;24368;52.156;20.788;2023-05-20T12:08:31;101343.72;;;21.74;78.50
38612;BME280;24368;52.156;20.788;2023-05-20T12:13:32;101343.54;;;21.93;76.73
38612;BME280;24368;52.156;20.788;2023-05-20T12:18:33;101341.28;;;21.76;75.02
38612;BME280;24368;52.156;20.788;2023-05-20T12:23:34;101339.49;;;21.91;76.30
38612;BME280;24368;52.156;20.788;2023-05-20T12:28:36;101339.46;;;22.06;74.26
38612;BME280;24368;52.156;20.788;2023-05-20T12:33:37;101334.66;;;21.98;77.76
38612;BME280;24368;52.156;20.788;2023-05-20T12:38:38;101329.52;;;22.17;81.15
38612;BME280;24368;52.156;20.788;2023-05-20T12:43:39;101332.09;;;22.26;78.74
38612;BME280;24368;52.156;20.788;2023-05-20T12:48:40;101332.52;;;21.80;80.99
38612;BME280;24368;52.156;20.788;2023-05-20T12:53:41;101323.60;;;21.55;79.07
38612;BME280;24368;52.156;20.788;2023-05-20T12:58:42;101315.93;;;21.68;77.24
38612;BME280;24368;52.156;20.788;2023-05-20T13:03:43;101303.94;;;22.02;78.52
38612;BME280;24368;52.156;20.788;2023-05-20T13:08:45;101301.48;;;22.31;79.13
38612;BME280;24368;52.156;20.788;2023-05-20T13:13:46;101294.92;;;22.56;78.79
38612;BME280;24368;52.156;20.788;2023-05-20T13:18:47;101293.29;;;22.51;80.41
38612;BME280;24368;52.156;20.788;2023-05-20T13:23:48;101291.08;;;22.24;80.14
38612;BME280;24368;52.156;20.788;2023-05-20T13:28:49;101285.14;;;22.16;79.27
38612;BME280;24368;52.156;20.788;2023-05-20T13:33:50;101286.47;;;22.16;79.21
38612;BME280;24368;52.156;20.788;2023-05-20T13:38:53;101285.23;;;22.22;78.36
38612;BME280;24368;52.156;20.788;2023-05-20T13:43:54;101286.50;;;22.46;75.91
38612;BME280;24368;52.156;20.788;2023-05-20T13:48:55;101279.60;;;22.58;72.45
38612;BME280;24368;52.156;20.788;2023-05-20T13:53:56;101274.88;;;22.53;74.66
38612;BME280;24368;52.156;20.788;2023-05-20T13:58:57;101273.43;;;22.18;78.10
38612;BME280;24368;52.156;20.788;2023-05-20T14:03:58;101265.01;;;22.02;80.31
38612;BME280;24368;52.156;20.788;2023-05-20T14:08:59;101263.04;;;21.98;79.63
38612;BME280;24368;52.156;20.788;2023-05-20T14:14:00;101261.20;;;22.11;79.05
38612;BME280;24368;52.156;20.788;2023-05-20T14:19:02;101257.70;;;21.99;80.73
38612;BME280;24368;52.156;20.788;2023-05-20T14:24:03;101253.73;;;21.84;80.51
38612;BME280;24368;52.156;20.788;2023-05-20T14:29:04;101248.71;;;21.72;79.69
38612;BME280;24368;52.156;20.788;2023-05-20T14:34:05;101256.67;;;21.84;78.01
38612;BME280;24368;52.156;20.788;2023-05-20T14:39:06;101249.55;;;21.89;79.70
38612;BME280;24368;52.156;20.788;2023-05-20T14:44:07;101243.86;;;21.79;79.93
38612;BME280;24368;52.156;20.788;2023-05-20T14:49:08;101245.58;;;21.85;78.53
38612;BME280;24368;52.156;20.788;2023-05-20T14:54:09;101242.47;;;21.80;77.32
38612;BME280;24368;52.156;20.788;2023-05-20T14:59:11;101241.33;;;21.67;78.75
38612;BME280;24368;52.156;20.788;2023-05-20T15:04:12;101243.64;;;21.58;79.65
38612;BME280;24368;52.156;20.788;2023-05-20T15:09:13;101241.06;;;21.53;81.02
38612;BME280;24368;52.156;20.788;2023-05-20T15:14:14;101241.15;;;21.48;81.49
38612;BME280;24368;52.156;20.788;2023-05-20T15:19:15;101234.77;;;21.43;81.95
38612;BME280;24368;52.156;20.788;2023-05-20T15:24:17;101231.98;;;21.39;81.55
38612;BME280;24368;52.156;20.788;2023-05-20T15:29:18;101235.14;;;21.39;81.96
38612;BME280;24368;52.156;20.788;2023-05-20T15:34:19;101227.15;;;21.45;81.37
38612;BME280;24368;52.156;20.788;2023-05-20T15:39:21;101221.41;;;21.51;81.53
38612;BME280;24368;52.156;20.788;2023-05-20T15:44:23;101217.61;;;21.59;82.17
38612;BME280;24368;52.156;20.788;2023-05-20T15:49:24;101216.20;;;21.63;82.39
38612;BME280;24368;52.156;20.788;2023-05-20T15:54:25;101213.94;;;22.00;80.28
38612;BME280;24368;52.156;20.788;2023-05-20T15:59:27;101211.79;;;22.16;80.54
38612;BME280;24368;52.156;20.788;2023-05-20T16:04:28;101216.64;;;22.17;80.04
38612;BME280;24368;52.156;20.788;2023-05-20T16:09:29;101213.73;;;22.13;79.47
38612;BME280;24368;52.156;20.788;2023-05-20T16:14:30;101216.95;;;22.09;81.15
38612;BME280;24368;52.156;20.788;2023-05-20T16:19:32;101210.66;;;22.03;78.98
38612;BME280;24368;52.156;20.788;2023-05-20T16:24:33;101205.33;;;21.83;80.57
38612;BME280;24368;52.156;20.788;2023-05-20T16:29:34;101207.44;;;21.63;81.34
38612;BME280;24368;52.156;20.788;2023-05-20T16:34:36;101213.26;;;21.52;83.74
38612;BME280;24368;52.156;20.788;2023-05-20T16:39:37;101212.00;;;21.41;82.80
38612;BME280;24368;52.156;20.788;2023-05-20T16:44:38;101215.11;;;21.33;82.84
38612;BME280;24368;52.156;20.788;2023-05-20T16:49:39;101220.95;;;21.28;81.07
38612;BME280;24368;52.156;20.788;2023-05-20T16:54:41;101218.80;;;21.24;81.04
38612;BME280;24368;52.156;20.788;2023-05-20T16:59:42;101220.40;;;21.18;81.12
38612;BME280;24368;52.156;20.788;2023-05-20T17:04:43;101226.38;;;21.13;81.37
38612;BME280;24368;52.156;20.788;2023-05-20T17:09:44;101230.14;;;21.12;82.38
38612;BME280;24368;52.156;20.788;2023-05-20T17:14:45;101230.66;;;21.08;82.50
38612;BME280;24368;52.156;20.788;2023-05-20T17:19:46;101229.44;;;21.02;83.52
38612;BME280;24368;52.156;20.788;2023-05-20T17:24:48;101224.96;;;20.96;84.79
38612;BME280;24368;52.156;20.788;2023-05-20T17:29:49;101227.86;;;20.87;83.95
38612;BME280;24368;52.156;20.788;2023-05-20T17:34:50;101232.66;;;20.81;83.37
38612;BME280;24368;52.156;20.788;2023-05-20T17:39:51;101237.23;;;20.75;82.74
38612;BME280;24368;52.156;20.788;2023-05-20T17:44:52;101241.85;;;20.72;81.53
38612;BME280;24368;52.156;20.788;2023-05-20T17:49:53;101246.95;;;20.70;81.62
38612;BME280;24368;52.156;20.788;2023-05-20T17:54:55;101246.76;;;20.63;81.73
38612;BME280;24368;52.156;20.788;2023-05-20T17:59:56;101242.73;;;20.58;81.37
38612;BME280;24368;52.156;20.788;2023-05-20T18:04:57;101243.71;;;20.52;81.32
38612;BME280;24368;52.156;20.788;2023-05-20T18:09:58;101243.21;;;20.43;81.13
38612;BME280;24368;52.156;20.788;2023-05-20T18:15:00;101247.14;;;20.38;81.09
38612;BME280;24368;52.156;20.788;2023-05-20T18:20:01;101253.20;;;20.28;81.24
38612;BME280;24368;52.156;20.788;2023-05-20T18:25:04;101253.14;;;20.21;80.95
38612;BME280;24368;52.156;20.788;2023-05-20T18:30:07;101254.04;;;20.13;80.44
38612;BME280;24368;52.156;20.788;2023-05-20T18:35:09;101258.14;;;20.09;80.30
38612;BME280;24368;52.156;20.788;2023-05-20T18:40:11;101259.54;;;19.95;80.94
38612;BME280;24368;52.156;20.788;2023-05-20T18:45:12;101266.36;;;19.82;82.31
38612;BME280;24368;52.156;20.788;2023-05-20T18:50:13;101269.48;;;19.74;83.04
38612;BME280;24368;52.156;20.788;2023-05-20T18:55:15;101259.98;;;19.72;83.72
38612;BME280;24368;52.156;20.788;2023-05-20T19:00:17;101258.79;;;19.67;83.93
38612;BME280;24368;52.156;20.788;2023-05-20T19:05:20;101265.02;;;19.60;83.94
38612;BME280;24368;52.156;20.788;2023-05-20T19:10:22;101264.98;;;19.47;84.51
38612;BME280;24368;52.156;20.788;2023-05-20T19:15:24;101267.67;;;19.43;84.82
38612;BME280;24368;52.156;20.788;2023-05-20T19:20:26;101268.71;;;19.33;85.30
38612;BME280;24368;52.156;20.788;2023-05-20T19:25:28;101262.65;;;19.25;85.59
38612;BME280;24368;52.156;20.788;2023-05-20T19:30:29;101264.45;;;19.17;85.36
38612;BME280;24368;52.156;20.788;2023-05-20T19:35:31;101261.29;;;19.18;84.90
38612;BME280;24368;52.156;20.788;2023-05-20T19:40:34;101259.72;;;19.10;84.26
38612;BME280;24368;52.156;20.788;2023-05-20T19:45:35;101261.42;;;18.98;85.06
38612;BME280;24368;52.156;20.788;2023-05-20T19:50:37;101256.70;;;18.92;84.88
38612;BME280;24368;52.156;20.788;2023-05-20T19:55:38;101254.54;;;18.88;84.90
38612;BME280;24368;52.156;20.788;2023-05-20T20:00:39;101261.79;;;18.78;85.53
38612;BME280;24368;52.156;20.788;2023-05-20T20:05:40;101260.29;;;18.70;85.85
38612;BME280;24368;52.156;20.788;2023-05-20T20:10:41;101255.73;;;18.63;86.02
38612;BME280;24368;52.156;20.788;2023-05-20T20:15:42;101264.39;;;18.55;86.34
38612;BME280;24368;52.156;20.788;2023-05-20T20:20:44;101267.23;;;18.44;86.57
38612;BME280;24368;52.156;20.788;2023-05-20T20:25:45;101266.05;;;18.38;87.14
38612;BME280;24368;52.156;20.788;2023-05-20T20:30:50;101266.86;;;18.22;87.75
38612;BME280;24368;52.156;20.788;2023-05-20T20:35:51;101268.78;;;18.14;87.40
38612;BME280;24368;52.156;20.788;2023-05-20T20:40:54;101272.42;;;18.10;87.32
38612;BME280;24368;52.156;20.788;2023-05-20T20:45:56;101270.29;;;18.05;87.57
38612;BME280;24368;52.156;20.788;2023-05-20T20:50:57;101270.27;;;18.00;87.31
38612;BME280;24368;52.156;20.788;2023-05-20T20:55:58;101260.02;;;17.94;87.52
38612;BME280;24368;52.156;20.788;2023-05-20T21:01:00;101256.08;;;17.95;87.51
38612;BME280;24368;52.156;20.788;2023-05-20T21:06:05;101253.59;;;17.90;87.25
38612;BME280;24368;52.156;20.788;2023-05-20T21:11:07;101256.52;;;17.81;87.25
38612;BME280;24368;52.156;20.788;2023-05-20T21:16:08;101255.95;;;17.77;86.64
38612;BME280;24368;52.156;20.788;2023-05-20T21:21:09;101253.20;;;17.70;86.54
38612;BME280;24368;52.156;20.788;2023-05-20T21:26:13;101252.42;;;17.61;86.78
38612;BME280;24368;52.156;20.788;2023-05-20T21:31:14;101249.21;;;17.57;86.98
38612;BME280;24368;52.156;20.788;2023-05-20T21:36:16;101246.44;;;17.47;87.88
38612;BME280;24368;52.156;20.788;2023-05-20T21:41:17;101252.48;;;17.38;88.39
38612;BME280;24368;52.156;20.788;2023-05-20T21:46:18;101255.18;;;17.28;89.08
38612;BME280;24368;52.156;20.788;2023-05-20T21:51:19;101257.11;;;17.22;89.24
38612;BME280;24368;52.156;20.788;2023-05-20T21:56:20;101257.06;;;17.13;89.96
38612;BME280;24368;52.156;20.788;2023-05-20T22:01:21;101254.00;;;17.11;90.39
38612;BME280;24368;52.156;20.788;2023-05-20T22:06:22;101255.55;;;17.14;90.84
38612;BME280;24368;52.156;20.788;2023-05-20T22:11:23;101257.10;;;17.13;90.79
38612;BME280;24368;52.156;20.788;2023-05-20T22:16:26;101257.17;;;17.09;92.20
38612;BME280;24368;52.156;20.788;2023-05-20T22:21:27;101257.43;;;16.99;92.75
38612;BME280;24368;52.156;20.788;2023-05-20T22:26:29;101255.16;;;16.99;92.88
38612;BME280;24368;52.156;20.788;2023-05-20T22:31:30;101262.15;;;16.95;93.09
38612;BME280;24368;52.156;20.788;2023-05-20T22:36:32;101258.98;;;16.88;93.13
38612;BME280;24368;52.156;20.788;2023-05-20T22:41:37;101259.21;;;16.75;94.39
38612;BME280;24368;52.156;20.788;2023-05-20T22:46:38;101260.06;;;16.61;95.17
38612;BME280;24368;52.156;20.788;2023-05-20T22:51:39;101259.13;;;16.51;95.94
38612;BME280;24368;52.156;20.788;2023-05-20T22:56:40;101260.15;;;16.43;96.38
38612;BME280;24368;52.156;20.788;2023-05-20T23:01:41;101253.44;;;16.33;97.17
38612;BME280;24368;52.156;20.788;2023-05-20T23:06:45;101247.89;;;16.31;97.14
38612;BME280;24368;52.156;20.788;2023-05-20T23:11:46;101243.73;;;16.35;96.03
38612;BME280;24368;52.156;20.788;2023-05-20T23:16:47;101245.39;;;16.30;97.02
38612;BME280;24368;52.156;20.788;2023-05-20T23:21:48;101247.41;;;16.25;96.63
38612;BME280;24368;52.156;20.788;2023-05-20T23:26:49;101248.61;;;16.20;97.28
38612;BME280;24368;52.156;20.788;2023-05-20T23:31:50;101246.11;;;16.20;96.73
38612;BME280;24368;52.156;20.788;2023-05-20T23:36:52;101252.66;;;16.18;96.96
38612;BME280;24368;52.156;20.788;2023-05-20T23:41:53;101249.23;;;16.08;96.59
38612;BME280;24368;52.156;20.788;2023-05-20T23:46:54;101248.02;;;15.98;97.51
38612;BME280;24368;52.156;20.788;2023-05-20T23:51:55;101248.08;;;15.86;97.99
38612;BME280;24368;52.156;20.788;2023-05-20T23:56:56;101249.76;;;15.79;98.30
